Time;durP1;ratioP1;P1;durP2;ratioP2;P2;SDS_P1;SDS_P2;PMS_P1;PMS_P2;Temp;Humidity;BMP_temperature;BMP_pressure;BME280_temperature;BME280_humidity;BME280_pressure;Samples;Min_cycle;Max_cycle;Signal;HPM_P1;HPM_P2
2023/04/01 00:01:06;;;;;;;;;1.17;0.00;;;;;13.28;61.05;100163.38;1997492;28;2731532;-78
2023/04/01 00:02:19;;;;;;;;;1.00;0.00;;;;;13.30;61.10;100170.38;1997069;28;2725266;-78
2023/04/01 00:03:33;;;;;;;;;1.00;0.83;;;;;13.32;61.23;100158.81;1997085;28;2735703;-78
2023/04/01 00:04:46;;;;;;;;;0.67;0.67;;;;;13.34;60.98;100169.28;1974687;28;2731519;-78
2023/04/01 00:06:00;;;;;;;;;0.00;0.00;;;;;13.35;61.28;100168.34;1968089;28;2729936;-77
2023/04/01 00:07:13;;;;;;;;;1.00;0.00;;;;;13.35;61.14;100174.50;1996659;28;2728424;-77
2023/04/01 00:08:27;;;;;;;;;1.50;0.00;;;;;13.38;60.84;100165.56;1996469;28;2727353;-77
2023/04/01 00:09:40;;;;;;;;;0.17;0.17;;;;;13.38;60.89;100168.19;1997966;28;2725872;-78
2023/04/01 00:10:53;;;;;;;;;2.17;0.00;;;;;13.38;60.93;100176.13;1974046;28;2725291;-77
2023/04/01 00:12:06;;;;;;;;;2.67;1.00;;;;;13.38;61.22;100184.84;1996503;28;2736784;-77
2023/04/01 00:13:20;;;;;;;;;0.00;0.00;;;;;13.39;61.26;100164.59;1996003;28;2733603;-77
2023/04/01 00:14:34;;;;;;;;;1.17;1.00;;;;;13.40;61.14;100171.59;1997286;28;2733642;-77
2023/04/01 00:15:48;;;;;;;;;2.33;1.00;;;;;13.41;61.26;100178.56;1968577;28;2739846;-78
2023/04/01 00:17:01;;;;;;;;;2.00;1.00;;;;;13.40;61.08;100166.31;1992730;28;2743010;-78
2023/04/01 00:18:15;;;;;;;;;0.00;0.00;;;;;13.40;61.15;100161.03;1975010;28;2727347;-77
2023/04/01 00:19:28;;;;;;;;;1.50;0.67;;;;;13.42;60.75;100168.88;1997428;28;2735687;-77
2023/04/01 00:20:46;;;;;;;;;0.33;0.17;;;;;13.40;60.70;100168.97;1973646;28;2731545;-78
2023/04/01 00:21:59;;;;;;;;;0.00;0.00;;;;;13.40;61.07;100166.31;1996884;28;2731532;-78
2023/04/01 00:23:14;;;;;;;;;2.83;0.00;;;;;13.41;61.27;100167.19;1996109;28;2729449;-78
2023/04/01 00:24:27;;;;;;;;;0.17;0.00;;;;;13.40;61.29;100168.97;1997428;28;2729433;-78
2023/04/01 00:25:41;;;;;;;;;3.33;0.00;;;;;13.39;60.93;100172.53;1995361;28;2729472;-78
2023/04/01 00:26:54;;;;;;;;;0.67;0.00;;;;;13.40;60.92;100187.44;1997172;28;2726332;-78
2023/04/01 00:28:08;;;;;;;;;0.00;0.00;;;;;13.40;61.19;100182.16;1996931;28;2734021;-77
2023/04/01 00:29:21;;;;;;;;;0.33;0.00;;;;;13.41;60.80;100183.84;1973488;28;2734661;-78
2023/04/01 00:30:36;;;;;;;;;1.67;0.00;;;;;13.41;61.16;100183.00;1996900;28;2733640;-78
2023/04/01 00:31:49;;;;;;;;;0.67;0.67;;;;;13.39;61.34;100180.44;1997074;28;2729453;-78
2023/04/01 00:33:03;;;;;;;;;0.67;0.00;;;;;13.40;61.06;100179.50;1996642;28;2729461;-78
2023/04/01 00:34:16;;;;;;;;;0.33;0.00;;;;;13.41;61.13;100177.72;1997436;28;2726308;-78
2023/04/01 00:35:29;;;;;;;;;2.00;0.00;;;;;13.41;61.19;100164.53;1994019;28;2732589;-78
2023/04/01 00:36:42;;;;;;;;;1.33;0.00;;;;;13.42;61.17;100174.13;1989011;28;2731528;-78
2023/04/01 00:37:55;;;;;;;;;0.00;0.00;;;;;13.41;61.07;100172.47;1995175;28;2731536;-78
2023/04/01 00:39:09;;;;;;;;;1.00;0.50;;;;;13.42;61.33;100174.13;1989948;28;2731519;-78
2023/04/01 00:40:29;;;;;;;;;1.50;0.00;;;;;13.43;61.20;100181.13;1997840;28;2725323;-78
2023/04/01 00:41:43;;;;;;;;;0.67;0.00;;;;;13.43;61.16;100174.06;1997731;28;2724225;-78
2023/04/01 00:42:56;;;;;;;;;1.17;0.00;;;;;13.42;61.03;100182.91;1997127;28;2727379;-78
2023/04/01 00:44:17;;;;;;;;;3.00;1.67;;;;;13.43;61.12;100171.44;1996544;28;2746122;-78
2023/04/01 00:45:31;;;;;;;;;4.33;1.00;;;;;13.44;61.27;100188.09;1972010;28;2745399;-78
2023/04/01 00:46:44;;;;;;;;;0.50;0.00;;;;;13.44;61.09;100196.88;1989720;28;2731552;-78
2023/04/01 00:48:01;;;;;;;;;0.00;0.00;;;;;13.44;61.41;100177.53;1998479;28;2733607;-78
2023/04/01 00:49:17;;;;;;;;;2.33;1.00;;;;;13.43;61.14;100167.94;1998001;28;2736768;-77
2023/04/01 00:50:32;;;;;;;;;0.33;0.00;;;;;13.42;61.37;100184.69;1976407;28;2726317;-78
2023/04/01 00:51:48;;;;;;;;;1.00;0.17;;;;;13.43;60.92;100174.06;1999161;28;2724217;-78
2023/04/01 00:53:02;;;;;;;;;0.00;0.00;;;;;13.43;61.38;100170.59;1976407;28;2722134;-78
2023/04/01 00:54:19;;;;;;;;;1.00;0.00;;;;;13.43;61.13;100171.44;1998941;28;2727349;-78
2023/04/01 00:55:35;;;;;;;;;0.00;0.00;;;;;13.43;61.28;100187.28;1975083;28;2728408;-78
2023/04/01 00:56:55;;;;;;;;;2.00;0.17;;;;;13.44;61.08;100174.91;1998350;28;2729426;-78
2023/04/01 00:58:14;;;;;;;;;1.67;0.00;;;;;13.42;60.81;100171.50;1998935;28;2733620;-78
2023/04/01 00:59:33;;;;;;;;;1.00;0.00;;;;;13.42;60.94;100168.88;1999202;28;2725259;-78
2023/04/01 01:00:49;;;;;;;;;0.00;0.00;;;;;13.43;60.51;100174.06;1998366;28;2730486;-78
2023/04/01 01:02:06;;;;;;;;;0.00;0.00;;;;;13.43;60.69;100173.22;1997935;28;2725271;-77
2023/04/01 01:03:19;;;;;;;;;0.83;0.00;;;;;13.44;60.84;100174.91;1997802;28;2728403;-77
2023/04/01 01:04:34;;;;;;;;;0.00;0.00;;;;;13.43;61.18;100167.94;1998894;28;2727369;-77
2023/04/01 01:06:00;;;;;;;;;0.17;0.00;;;;;13.43;61.07;100168.81;1998317;28;2722142;-77
2023/04/01 01:07:20;;;;;;;;;0.00;0.00;;;;;13.44;61.01;100167.84;1999055;28;2725299;-78
2023/04/01 01:08:51;;;;;;;;;0.67;0.00;;;;;13.45;61.12;100166.94;1999268;28;2726347;-78
2023/04/01 01:10:16;;;;;;;;;0.67;0.00;;;;;13.46;61.17;100171.25;1990971;28;2733643;-77
2023/04/01 01:11:37;;;;;;;;;1.50;0.17;;;;;13.47;61.23;100167.69;1996995;28;2730479;-78
2023/04/01 01:13:16;;;;;;;;;1.83;0.00;;;;;13.46;61.37;100163.31;1974636;28;2725325;-78
2023/04/01 01:14:51;;;;;;;;;2.00;0.00;;;;;13.46;61.00;100165.13;1991158;28;2737758;-78
2023/04/01 01:16:14;;;;;;;;;0.33;0.33;;;;;13.46;61.04;100168.59;1996473;28;2734658;-77
2023/04/01 01:17:39;;;;;;;;;1.50;0.67;;;;;13.48;60.92;100173.81;1998414;28;2735671;-78
2023/04/01 01:19:07;;;;;;;;;0.50;0.50;;;;;13.48;61.10;100173.81;1998125;28;2727366;-78
2023/04/01 01:20:46;;;;;;;;;1.50;0.83;;;;;13.45;61.22;100166.94;1993834;28;2722168;-78
2023/04/01 01:22:03;;;;;;;;;0.00;0.00;;;;;13.46;61.05;100173.03;1973991;28;2723179;-78
2023/04/01 01:23:30;;;;;;;;;1.00;0.00;;;;;13.43;61.12;100174.06;1997902;28;2733626;-79
2023/04/01 01:24:58;;;;;;;;;1.00;0.33;;;;;13.41;61.19;100161.91;1994499;28;2723191;-78
2023/04/01 01:26:26;;;;;;;;;2.00;0.00;;;;;13.40;61.70;100166.31;1998997;28;2729450;-78
2023/04/01 01:27:45;;;;;;;;;0.83;0.00;;;;;13.38;61.47;100163.75;1996761;28;2733595;-78
2023/04/01 01:29:50;;;;;;;;;1.67;0.50;;;;;13.39;61.28;100160.19;1998533;28;2735678;-78
2023/04/01 01:31:19;;;;;;;;;0.17;0.17;;;;;13.38;61.37;100178.75;1997198;28;2724245;-78
2023/04/01 01:33:10;;;;;;;;;1.17;0.00;;;;;13.36;61.31;100180.59;1992332;28;2733648;-78
2023/04/01 01:34:30;;;;;;;;;0.83;0.67;;;;;13.36;61.29;100172.69;1990204;28;2736729;-78
2023/04/01 01:35:43;;;;;;;;;0.00;0.00;;;;;13.35;61.61;100176.28;1994795;28;2725305;-78
2023/04/01 01:37:05;;;;;;;;;0.67;0.17;;;;;13.34;61.42;100175.41;1991143;28;2731505;-78
2023/04/01 01:38:24;;;;;;;;;0.00;0.00;;;;;13.32;61.52;100179.06;1976061;28;2731532;-78
2023/04/01 01:39:39;;;;;;;;;0.50;0.50;;;;;13.32;61.50;100171.16;1998444;28;2727354;-78
2023/04/01 01:40:56;;;;;;;;;2.67;0.00;;;;;13.31;61.81;100193.22;1974445;28;2733619;-78
2023/04/01 01:42:15;;;;;;;;;0.67;0.00;;;;;13.30;61.79;100183.56;1997743;28;2724252;-78
2023/04/01 01:43:37;;;;;;;;;1.50;0.50;;;;;13.29;61.76;100180.09;1975307;28;2733606;-78
2023/04/01 01:44:53;;;;;;;;;0.67;0.00;;;;;13.30;62.09;100180.94;1998000;28;2733591;-78
2023/04/01 01:46:18;;;;;;;;;1.50;0.00;;;;;13.30;62.05;100184.44;1998747;28;2731509;-78
2023/04/01 01:47:34;;;;;;;;;0.00;0.00;;;;;13.31;61.89;100180.84;2000115;28;2704437;-78
2023/04/01 01:48:50;;;;;;;;;1.50;0.00;;;;;13.28;61.91;100173.13;1997455;28;2737786;-78
2023/04/01 01:50:05;;;;;;;;;0.00;0.00;;;;;13.27;62.42;100185.44;1998331;28;2725267;-78
2023/04/01 01:51:21;;;;;;;;;0.00;0.00;;;;;13.24;62.42;100177.69;1999152;28;2721474;-79
2023/04/01 01:52:34;;;;;;;;;0.50;0.00;;;;;13.22;62.44;100184.84;1990899;28;2726317;-79
2023/04/01 01:53:48;;;;;;;;;1.33;0.50;;;;;13.22;62.46;100189.25;1996087;28;2733611;-78
2023/04/01 01:55:01;;;;;;;;;3.33;0.00;;;;;13.22;62.60;100190.13;1997241;28;2731545;-78
2023/04/01 01:56:18;;;;;;;;;0.00;0.00;;;;;13.22;62.41;100184.84;1998497;28;2723754;-78
2023/04/01 01:57:38;;;;;;;;;0.00;0.00;;;;;13.23;62.55;100196.25;1975550;28;2724224;-78
2023/04/01 01:58:56;;;;;;;;;1.50;0.00;;;;;13.22;62.59;100197.19;1998889;28;2725259;-78
2023/04/01 02:00:14;;;;;;;;;0.00;0.00;;;;;13.20;62.54;100192.00;1998512;28;2725728;-79
2023/04/01 02:01:31;;;;;;;;;0.83;0.00;;;;;13.20;62.55;100183.22;1996394;28;2724588;-78
2023/04/01 02:02:47;;;;;;;;;1.83;0.50;;;;;13.20;62.68;100199.06;1983969;28;2736257;-78
2023/04/01 02:04:00;;;;;;;;;0.33;0.00;;;;;13.19;62.82;100194.69;1975510;28;2724229;-78
2023/04/01 02:05:20;;;;;;;;;0.00;0.00;;;;;13.18;62.90;100188.59;1997538;28;2725275;-79
2023/04/01 02:06:38;;;;;;;;;0.17;0.00;;;;;13.18;62.94;100195.63;1991219;28;2724264;-78
2023/04/01 02:08:01;;;;;;;;;0.83;0.00;;;;;13.15;62.79;100189.59;1997072;28;2737774;-78
2023/04/01 02:09:15;;;;;;;;;0.00;0.00;;;;;13.13;63.08;100196.75;1991065;28;2727362;-78
2023/04/01 02:10:34;;;;;;;;;2.33;0.00;;;;;13.12;63.24;100202.94;1996324;28;2724749;-78
2023/04/01 02:11:55;;;;;;;;;0.00;0.00;;;;;13.09;63.11;100189.91;1994203;28;2731521;-79
2023/04/01 02:13:21;;;;;;;;;0.17;0.00;;;;;13.07;62.46;100180.38;1997639;28;2729461;-79
2023/04/01 02:14:47;;;;;;;;;0.00;0.00;;;;;13.07;62.79;100197.06;1998815;28;2725305;-78
2023/04/01 02:16:07;;;;;;;;;0.17;0.00;;;;;13.05;62.74;100191.00;1998531;28;2729933;-78
2023/04/01 02:17:23;;;;;;;;;3.50;0.33;;;;;13.02;63.00;100192.03;1996799;28;2737843;-78
2023/04/01 02:18:38;;;;;;;;;0.00;0.00;;;;;13.02;63.02;100180.59;1996623;28;2739131;-78
2023/04/01 02:20:00;;;;;;;;;1.50;0.00;;;;;13.01;63.15;100182.38;1998240;28;2733619;-78
2023/04/01 02:21:15;;;;;;;;;0.00;0.00;;;;;13.02;62.91;100184.09;1997113;28;2731524;-78
2023/04/01 02:22:38;;;;;;;;;0.00;0.00;;;;;13.02;63.09;100186.75;1975260;28;2727354;-78
2023/04/01 02:23:54;;;;;;;;;2.83;0.00;;;;;13.03;62.77;100191.09;1990060;28;2731848;-78
2023/04/01 02:25:14;;;;;;;;;1.00;0.33;;;;;13.04;62.84;100186.66;1995233;28;2721483;-79
2023/04/01 02:26:27;;;;;;;;;1.00;0.00;;;;;13.03;62.50;100192.88;1996961;28;2731588;-77
2023/04/01 02:27:43;;;;;;;;;1.00;0.00;;;;;13.01;62.75;100187.66;1998040;28;2732004;-77
2023/04/01 02:29:00;;;;;;;;;0.33;0.00;;;;;13.00;62.54;100183.34;1996761;28;2733596;-78
2023/04/01 02:30:16;;;;;;;;;0.00;0.00;;;;;12.99;62.35;100189.53;1975865;28;2727358;-78
2023/04/01 02:31:30;;;;;;;;;1.00;0.00;;;;;13.00;62.51;100196.53;1997072;28;2725326;-78
2023/04/01 02:32:44;;;;;;;;;0.67;0.67;;;;;13.01;62.22;100187.66;1997923;28;2737830;-78
2023/04/01 02:33:58;;;;;;;;;0.00;0.00;;;;;13.03;62.41;100204.28;1998082;28;2731533;-78
2023/04/01 02:35:15;;;;;;;;;0.83;0.00;;;;;13.03;62.32;100191.09;1998449;28;2727354;-77
2023/04/01 02:36:28;;;;;;;;;0.17;0.00;;;;;13.03;62.39;100195.50;1998179;28;2725262;-77
2023/04/01 02:37:46;;;;;;;;;1.33;0.17;;;;;13.03;62.07;100185.81;1998478;28;2726304;-78
2023/04/01 02:39:02;;;;;;;;;0.00;0.00;;;;;13.03;62.18;100199.00;1998303;28;2727349;-79
2023/04/01 02:40:16;;;;;;;;;1.00;0.00;;;;;13.03;61.78;100199.00;1997793;28;2725279;-79
2023/04/01 02:41:30;;;;;;;;;0.33;0.00;;;;;13.02;62.13;100212.25;1996774;28;2725779;-78
2023/04/01 02:42:43;;;;;;;;;2.50;0.00;;;;;13.03;62.12;100191.09;1998596;28;2728028;-77
2023/04/01 02:43:58;;;;;;;;;0.67;0.00;;;;;13.03;61.77;100196.38;1998519;28;2725693;-78
2023/04/01 02:45:12;;;;;;;;;0.00;0.00;;;;;13.04;62.21;100203.34;1997773;28;2725271;-78
2023/04/01 02:46:25;;;;;;;;;0.00;0.00;;;;;13.07;61.84;100197.06;1997736;28;2725797;-79
2023/04/01 02:47:39;;;;;;;;;0.67;0.00;;;;;13.06;61.76;100208.56;1997048;28;2731561;-78
2023/04/01 02:48:53;;;;;;;;;0.00;0.00;;;;;13.08;61.51;100209.31;1996881;28;2724237;-78
2023/04/01 02:50:07;;;;;;;;;0.00;0.00;;;;;13.09;61.26;100191.72;1997168;28;2725309;-78
2023/04/01 02:51:20;;;;;;;;;1.33;0.00;;;;;13.07;61.74;100190.91;1997564;28;2738251;-78
2023/04/01 02:52:33;;;;;;;;;0.33;0.33;;;;;13.09;61.62;100205.72;1975900;28;2726348;-78
2023/04/01 02:53:46;;;;;;;;;0.00;0.00;;;;;13.10;61.76;100196.03;1997160;28;2725295;-78
2023/04/01 02:55:00;;;;;;;;;0.00;0.00;;;;;13.11;61.38;100198.59;1998545;28;2724248;-78
2023/04/01 02:56:13;;;;;;;;;0.00;0.00;;;;;13.12;61.56;100202.09;1989090;28;2724249;-78
2023/04/01 02:57:26;;;;;;;;;0.00;0.00;;;;;13.16;61.50;100208.94;1990875;28;2720094;-78
2023/04/01 02:58:39;;;;;;;;;1.00;0.00;;;;;13.16;61.43;100201.00;1997866;28;2725338;-78
2023/04/01 02:59:53;;;;;;;;;0.00;0.00;;;;;13.19;61.42;100210.53;1973526;28;2721224;-78
2023/04/01 03:01:07;;;;;;;;;0.00;0.00;;;;;13.20;61.33;100210.47;1997791;28;2727378;-78
2023/04/01 03:02:20;;;;;;;;;0.50;0.00;;;;;13.22;61.33;100205.94;1998626;28;2721093;-78
2023/04/01 03:03:33;;;;;;;;;0.00;0.00;;;;;13.22;61.27;100205.94;1997321;28;2727364;-78
2023/04/01 03:04:46;;;;;;;;;1.83;0.00;;;;;13.24;61.15;100217.28;1996025;28;2731547;-78
2023/04/01 03:06:12;;;;;;;;;2.83;0.00;;;;;13.24;60.89;100206.72;1997747;28;2733592;-79
2023/04/01 03:07:25;;;;;;;;;2.00;0.00;;;;;13.24;60.55;100208.50;1997204;28;2729485;-78
2023/04/01 03:08:39;;;;;;;;;1.00;0.00;;;;;13.23;60.90;100215.59;1996401;28;2729457;-79
2023/04/01 03:09:52;;;;;;;;;2.00;0.00;;;;;13.23;60.78;100218.22;1997464;28;2726333;-78
2023/04/01 03:11:06;;;;;;;;;1.00;0.00;;;;;13.25;60.67;100224.28;1971884;28;2733636;-78
2023/04/01 03:12:19;;;;;;;;;0.50;0.00;;;;;13.25;60.24;100221.63;1997100;28;2726319;-78
2023/04/01 03:13:33;;;;;;;;;0.00;0.00;;;;;13.25;60.34;100226.06;1998027;28;2723219;-78
2023/04/01 03:14:46;;;;;;;;;0.00;0.00;;;;;13.24;60.32;100206.72;1998802;28;2714889;-78
2023/04/01 03:15:59;;;;;;;;;0.50;0.00;;;;;13.24;60.62;100219.06;1998405;28;2725646;-78
2023/04/01 03:17:13;;;;;;;;;0.50;0.00;;;;;13.24;60.40;100225.19;1997928;28;2727339;-78
2023/04/01 03:18:26;;;;;;;;;0.33;0.00;;;;;13.24;60.47;100229.59;1975501;28;2722161;-78
2023/04/01 03:19:39;;;;;;;;;0.00;0.00;;;;;13.23;60.58;100220.88;1998441;28;2722626;-78
2023/04/01 03:20:52;;;;;;;;;0.00;0.00;;;;;13.25;60.48;100224.28;1996483;28;2726305;-77
2023/04/01 03:22:05;;;;;;;;;0.00;0.00;;;;;13.26;60.38;100223.31;1997370;28;2724253;-78
2023/04/01 03:23:24;;;;;;;;;0.00;0.00;;;;;13.26;60.77;100228.59;1996707;28;2725271;-78
2023/04/01 03:24:37;;;;;;;;;0.00;0.00;;;;;13.28;60.69;100225.91;1997840;28;2724253;-78
2023/04/01 03:25:50;;;;;;;;;0.00;0.00;;;;;13.27;60.16;100219.75;1996612;28;2733603;-77
2023/04/01 03:27:03;;;;;;;;;0.00;0.00;;;;;13.26;60.40;100225.97;1973015;28;2729517;-78
2023/04/01 03:28:16;;;;;;;;;2.50;0.33;;;;;13.26;60.13;100227.78;1973332;28;2731536;-78
2023/04/01 03:29:30;;;;;;;;;0.00;0.00;;;;;13.27;60.57;100226.81;1997931;28;2726339;-78
2023/04/01 03:30:43;;;;;;;;;0.33;0.00;;;;;13.25;60.39;100237.47;1996523;28;2731527;-78
2023/04/01 03:31:57;;;;;;;;;0.17;0.00;;;;;13.25;60.49;100237.47;1997949;28;2723200;-78
2023/04/01 03:33:10;;;;;;;;;1.17;0.00;;;;;13.25;60.24;100237.47;1996120;28;2724217;-78
2023/04/01 03:34:24;;;;;;;;;1.67;0.00;;;;;13.24;60.28;100233.09;1998339;28;2723275;-78
2023/04/01 03:35:38;;;;;;;;;0.00;0.00;;;;;13.24;60.34;100240.16;1997625;28;2731540;-78
2023/04/01 03:36:51;;;;;;;;;1.00;0.00;;;;;13.23;60.39;100241.13;1992900;28;2729461;-78
2023/04/01 03:38:04;;;;;;;;;1.00;0.00;;;;;13.20;60.40;100250.03;1996232;28;2733628;-78
2023/04/01 03:39:18;;;;;;;;;0.00;0.00;;;;;13.19;60.68;100240.41;1997329;28;2733604;-78
2023/04/01 03:40:32;;;;;;;;;0.17;0.00;;;;;13.20;60.71;100249.19;1973937;28;2727366;-78
2023/04/01 03:41:46;;;;;;;;;1.00;1.00;;;;;13.20;60.65;100243.91;1997126;28;2730499;-78
2023/04/01 03:42:59;;;;;;;;;0.67;0.00;;;;;13.19;61.09;100237.78;1974606;28;2725271;-78
2023/04/01 03:44:12;;;;;;;;;0.50;0.00;;;;;13.20;60.82;100238.63;1996671;28;2724273;-78
2023/04/01 03:45:26;;;;;;;;;3.33;0.00;;;;;13.21;60.51;100240.34;1989797;28;2729462;-78
2023/04/01 03:46:39;;;;;;;;;1.17;0.33;;;;;13.20;60.70;100234.22;1996040;28;2735686;-78
2023/04/01 03:47:53;;;;;;;;;0.00;0.00;;;;;13.19;60.80;100244.81;1997006;28;2725267;-78
2023/04/01 03:49:11;;;;;;;;;1.00;0.00;;;;;13.19;60.59;100231.63;1996295;28;2716970;-78
2023/04/01 03:50:25;;;;;;;;;0.17;0.17;;;;;13.19;60.96;100227.22;1997250;28;2737854;-78
2023/04/01 03:51:42;;;;;;;;;1.33;0.00;;;;;13.21;60.59;100249.09;1997755;28;2735702;-78
2023/04/01 03:52:56;;;;;;;;;0.67;0.00;;;;;13.19;60.28;100237.78;1972708;28;2733636;-78
2023/04/01 03:54:10;;;;;;;;;1.33;0.00;;;;;13.18;60.57;100241.34;1989415;28;2725274;-78
2023/04/01 03:55:23;;;;;;;;;4.67;0.00;;;;;13.20;60.62;100243.91;1995078;28;2730478;-78
2023/04/01 03:56:37;;;;;;;;;3.67;0.00;;;;;13.20;60.15;100241.28;1992257;28;2738836;-78
2023/04/01 03:57:50;;;;;;;;;1.33;0.00;;;;;13.20;59.76;100233.34;1972941;28;2735668;-78
2023/04/01 03:59:06;;;;;;;;;1.33;0.00;;;;;13.19;60.06;100236.91;1973009;28;2727357;-78
2023/04/01 04:00:20;;;;;;;;;0.33;0.33;;;;;13.20;60.02;100236.84;1990113;28;2727338;-78
2023/04/01 04:01:33;;;;;;;;;0.00;0.00;;;;;13.20;59.87;100242.13;1966919;28;2727988;-78
2023/04/01 04:02:46;;;;;;;;;0.67;0.00;;;;;13.21;60.04;100241.19;1996901;28;2733611;-78
2023/04/01 04:04:00;;;;;;;;;0.00;0.00;;;;;13.22;60.18;100242.03;1998827;28;2712825;-78
2023/04/01 04:05:13;;;;;;;;;1.00;0.00;;;;;13.22;59.75;100245.53;1995692;28;2724221;-78
2023/04/01 04:06:30;;;;;;;;;0.00;0.00;;;;;13.21;59.97;100235.91;1997233;28;2734025;-78
2023/04/01 04:07:43;;;;;;;;;0.83;0.00;;;;;13.21;60.01;100241.19;1997293;28;2722137;-78
2023/04/01 04:08:57;;;;;;;;;0.00;0.00;;;;;13.21;60.12;100246.47;1996461;28;2710728;-78
2023/04/01 04:10:11;;;;;;;;;0.33;0.00;;;;;13.24;60.50;100251.59;1997412;28;2731531;-78
2023/04/01 04:11:25;;;;;;;;;1.17;0.00;;;;;13.24;60.18;100250.72;1998029;28;2725327;-78
2023/04/01 04:12:40;;;;;;;;;0.50;0.00;;;;;13.22;60.10;100242.91;1995530;28;2725270;-78
2023/04/01 04:13:53;;;;;;;;;0.83;0.00;;;;;13.21;59.95;100243.00;1998076;28;2725247;-78
2023/04/01 04:15:07;;;;;;;;;0.17;0.00;;;;;13.20;59.89;100247.41;1997544;28;2720078;-78
2023/04/01 04:16:20;;;;;;;;;0.00;0.00;;;;;13.21;60.32;100243.00;1998229;28;2725255;-79
2023/04/01 04:17:34;;;;;;;;;0.67;0.00;;;;;13.22;60.17;100249.97;1990188;28;2720043;-78
2023/04/01 04:18:47;;;;;;;;;1.83;0.00;;;;;13.23;59.86;100249.91;1996580;28;2727397;-79
2023/04/01 04:20:00;;;;;;;;;0.00;0.00;;;;;13.21;59.94;100249.09;1995533;28;2733584;-78
2023/04/01 04:21:14;;;;;;;;;0.33;0.00;;;;;13.22;60.05;100250.81;1996621;28;2725259;-78
2023/04/01 04:22:28;;;;;;;;;0.00;0.00;;;;;13.22;60.04;100258.72;1998354;28;2703444;-78
2023/04/01 04:23:42;;;;;;;;;1.83;0.00;;;;;13.23;60.04;100252.53;1996322;28;2734645;-79
2023/04/01 04:24:55;;;;;;;;;1.00;0.00;;;;;13.23;59.82;100254.31;1995867;28;2733689;-78
2023/04/01 04:26:12;;;;;;;;;0.50;0.00;;;;;13.22;59.74;100256.09;1989103;28;2735714;-78
2023/04/01 04:27:25;;;;;;;;;1.00;0.00;;;;;13.21;59.76;100251.72;1972165;28;2727368;-78
2023/04/01 04:28:39;;;;;;;;;0.83;0.33;;;;;13.22;60.02;100257.88;1996312;28;2734665;-78
2023/04/01 04:29:52;;;;;;;;;3.50;0.00;;;;;13.21;59.94;100258.81;1966457;28;2733620;-78
2023/04/01 04:31:06;;;;;;;;;0.00;0.00;;;;;13.21;60.01;100264.94;1973644;28;2722177;-78
2023/04/01 04:32:19;;;;;;;;;0.67;0.00;;;;;13.22;59.86;100264.00;1998169;28;2720058;-78
2023/04/01 04:33:33;;;;;;;;;0.33;0.33;;;;;13.23;59.45;100264.88;1990177;28;2738839;-78
2023/04/01 04:34:46;;;;;;;;;3.83;0.33;;;;;13.23;59.77;100264.88;1992683;28;2736744;-78
2023/04/01 04:36:03;;;;;;;;;0.33;0.17;;;;;13.22;59.52;100256.09;1973828;28;2730491;-78
2023/04/01 04:37:16;;;;;;;;;3.67;0.00;;;;;13.23;59.89;100270.16;1995571;28;2725267;-78
2023/04/01 04:38:29;;;;;;;;;0.83;0.00;;;;;13.22;59.71;100264.00;1996032;28;2733607;-78
2023/04/01 04:39:43;;;;;;;;;0.00;0.00;;;;;13.24;59.70;100274.47;1989903;28;2729488;-79
2023/04/01 04:40:56;;;;;;;;;0.00;0.00;;;;;13.25;59.32;100274.41;1995345;28;2735702;-77
2023/04/01 04:42:09;;;;;;;;;1.00;0.33;;;;;13.25;59.81;100269.13;1997535;28;2727364;-78
2023/04/01 04:43:22;;;;;;;;;0.67;0.17;;;;;13.27;59.33;100271.69;1975472;28;2725294;-77
2023/04/01 04:44:36;;;;;;;;;1.00;0.00;;;;;13.27;59.60;100272.53;1995481;28;2735719;-77
2023/04/01 04:45:49;;;;;;;;;0.00;0.00;;;;;13.28;59.71;100279.50;1973779;28;2733647;-77
2023/04/01 04:47:02;;;;;;;;;0.00;0.00;;;;;13.30;59.85;100282.09;1997542;28;2720074;-77
2023/04/01 04:48:18;;;;;;;;;0.67;0.00;;;;;13.31;59.22;100275.03;1997191;28;2728408;-77
2023/04/01 04:49:31;;;;;;;;;0.00;0.00;;;;;13.30;59.57;100275.94;1989860;28;2724225;-77
2023/04/01 04:50:46;;;;;;;;;0.00;0.00;;;;;13.33;59.48;100281.06;1974015;28;2724224;-77
2023/04/01 04:52:00;;;;;;;;;0.50;0.00;;;;;13.34;59.21;100285.41;1997175;28;2725255;-77
2023/04/01 04:53:15;;;;;;;;;0.00;0.00;;;;;13.34;59.48;100272.22;1991500;28;2737830;-77
2023/04/01 04:54:29;;;;;;;;;0.00;0.00;;;;;13.36;59.45;100275.63;1967073;28;2733608;-77
2023/04/01 04:55:46;;;;;;;;;2.83;0.00;;;;;13.36;59.13;100280.91;1996413;28;2733595;-78
2023/04/01 04:57:00;;;;;;;;;0.50;0.00;;;;;13.37;59.16;100282.63;1993311;28;2724244;-78
2023/04/01 04:58:13;;;;;;;;;1.50;0.33;;;;;13.35;58.31;100280.06;1992744;28;2734653;-78
2023/04/01 04:59:26;;;;;;;;;2.83;0.00;;;;;13.35;59.00;100285.34;1997017;28;2729434;-78
2023/04/01 05:00:39;;;;;;;;;1.83;0.00;;;;;13.35;59.23;100281.84;1990094;28;2727353;-77
2023/04/01 05:01:52;;;;;;;;;3.00;0.00;;;;;13.36;59.25;100270.34;1997269;28;2725274;-78
2023/04/01 05:03:06;;;;;;;;;0.33;0.00;;;;;13.36;59.04;100275.63;1969616;28;2725350;-77
2023/04/01 05:04:19;;;;;;;;;2.83;1.00;;;;;13.37;59.64;100285.25;1990566;28;2737854;-77
2023/04/01 05:05:32;;;;;;;;;0.00;0.00;;;;;13.37;59.26;100282.63;1974234;28;2733588;-77
2023/04/01 05:06:45;;;;;;;;;0.50;0.00;;;;;13.37;59.11;100279.97;1997088;28;2726368;-77
2023/04/01 05:07:59;;;;;;;;;2.67;0.00;;;;;13.37;59.21;100275.56;1997579;28;2721132;-78
2023/04/01 05:09:12;;;;;;;;;1.00;0.00;;;;;13.38;59.34;100289.63;2001329;28;2735686;-77
2023/04/01 05:10:25;;;;;;;;;3.67;1.00;;;;;13.37;58.93;100274.69;1979106;28;2736262;-78
2023/04/01 05:11:38;;;;;;;;;0.00;0.00;;;;;13.36;59.07;100279.13;1975036;28;2720482;-78
2023/04/01 05:12:52;;;;;;;;;0.00;0.00;;;;;13.37;58.94;100283.47;1989227;28;2722142;-77
2023/04/01 05:14:05;;;;;;;;;2.00;0.00;;;;;13.36;59.16;100304.66;1997230;28;2729444;-78
2023/04/01 05:15:18;;;;;;;;;0.00;0.00;;;;;13.36;59.16;100287.03;1997862;28;2726051;-78
2023/04/01 05:16:31;;;;;;;;;0.83;0.00;;;;;13.35;59.04;100295.91;1988695;28;2725273;-78
2023/04/01 05:17:44;;;;;;;;;0.33;0.00;;;;;13.33;58.74;100289.84;1990770;28;2727345;-78
2023/04/01 05:18:58;;;;;;;;;0.00;0.00;;;;;13.33;59.12;100289.00;1974685;28;2726317;-77
2023/04/01 05:20:13;;;;;;;;;0.50;0.00;;;;;13.33;59.12;100289.00;1975065;28;2727357;-78
2023/04/01 05:21:26;;;;;;;;;0.33;0.00;;;;;13.34;59.57;100290.69;1995941;28;2723683;-78
2023/04/01 05:22:39;;;;;;;;;1.33;0.17;;;;;13.34;58.78;100283.63;1996436;28;2725301;-78
2023/04/01 05:23:52;;;;;;;;;0.00;0.00;;;;;13.33;58.89;100291.63;1996818;28;2725387;-78
2023/04/01 05:25:06;;;;;;;;;0.00;0.00;;;;;13.32;59.08;100288.13;1996637;28;2725609;-78
2023/04/01 05:26:19;;;;;;;;;0.67;0.00;;;;;13.32;59.05;100300.47;1998266;28;2729460;-78
2023/04/01 05:27:32;;;;;;;;;0.00;0.00;;;;;13.32;59.19;100290.78;1999219;28;2722138;-78
2023/04/01 05:28:45;;;;;;;;;0.67;0.00;;;;;13.34;59.17;100298.59;2000213;28;2729453;-78
2023/04/01 05:29:59;;;;;;;;;0.83;0.00;;;;;13.33;59.02;100299.56;1982725;28;2725787;-78
2023/04/01 05:31:12;;;;;;;;;0.00;0.00;;;;;13.32;58.91;100300.47;1996648;28;2725255;-78
2023/04/01 05:32:25;;;;;;;;;0.00;0.00;;;;;13.30;58.83;100308.47;1988823;28;2721131;-78
2023/04/01 05:33:38;;;;;;;;;1.67;0.00;;;;;13.28;59.03;100305.91;1990161;28;2727358;-77
2023/04/01 05:34:52;;;;;;;;;0.00;0.00;;;;;13.27;59.25;100304.22;1975779;28;2731584;-77
2023/04/01 05:36:14;;;;;;;;;1.83;0.00;;;;;13.27;58.93;100308.63;1976274;28;2728384;-78
2023/04/01 05:37:27;;;;;;;;;0.00;0.00;;;;;13.25;58.72;100305.22;1997345;28;2733608;-78
2023/04/01 05:38:42;;;;;;;;;0.83;0.00;;;;;13.26;58.98;100299.03;1997156;28;2731513;-78
2023/04/01 05:39:55;;;;;;;;;0.17;0.00;;;;;13.25;59.57;100298.16;1973952;28;2725297;-78
2023/04/01 05:41:08;;;;;;;;;0.00;0.00;;;;;13.24;59.27;100309.63;1996535;28;2733663;-77
2023/04/01 05:42:21;;;;;;;;;0.00;0.00;;;;;13.25;59.43;100305.22;1961196;28;2724228;-78
2023/04/01 05:43:39;;;;;;;;;0.00;0.00;;;;;13.24;59.12;100306.16;1991660;28;2725287;-77
2023/04/01 05:44:52;;;;;;;;;0.83;0.00;;;;;13.23;59.31;100312.38;1997712;28;2725766;-78